sensor_id;sensor_type;location;lat;lon;timestamp;P1;durP1;ratioP1;P2;durP2;ratioP2
13435;SDS011;6790;49.520;8.504;2023-03-01T00:00:40;4.97;;;3.90;;
13435;SDS011;6790;49.520;8.504;2023-03-01T00:03:06;9.77;;;4.83;;
13435;SDS011;6790;49.520;8.504;2023-03-01T00:05:31;15.77;;;5.93;;
13435;SDS011;6790;49.520;8.504;2023-03-01T00:07:57;11.93;;;6.67;;
13435;SDS011;6790;49.520;8.504;2023-03-01T00:10:23;10.90;;;5.57;;
13435;SDS011;6790;49.520;8.504;2023-03-01T00:12:49;8.23;;;4.87;;
13435;SDS011;6790;49.520;8.504;2023-03-01T00:15:15;9.97;;;5.23;;
13435;SDS011;6790;49.520;8.504;2023-03-01T00:17:40;9.20;;;4.93;;
13435;SDS011;6790;49.520;8.504;2023-03-01T00:20:07;9.47;;;6.63;;
13435;SDS011;6790;49.520;8.504;2023-03-01T00:22:35;10.27;;;5.77;;
13435;SDS011;6790;49.520;8.504;2023-03-01T00:25:01;9.87;;;5.60;;
13435;SDS011;6790;49.520;8.504;2023-03-01T00:27:28;11.30;;;5.73;;
13435;SDS011;6790;49.520;8.504;2023-03-01T00:29:54;10.57;;;5.63;;
13435;SDS011;6790;49.520;8.504;2023-03-01T00:32:19;9.43;;;4.93;;
13435;SDS011;6790;49.520;8.504;2023-03-01T00:34:45;10.90;;;4.73;;
13435;SDS011;6790;49.520;8.504;2023-03-01T00:37:20;12.60;;;6.10;;
13435;SDS011;6790;49.520;8.504;2023-03-01T00:39:48;11.47;;;6.67;;
13435;SDS011;6790;49.520;8.504;2023-03-01T00:42:14;10.47;;;5.40;;
13435;SDS011;6790;49.520;8.504;2023-03-01T00:44:40;8.17;;;4.67;;
13435;SDS011;6790;49.520;8.504;2023-03-01T00:47:06;15.20;;;6.23;;
13435;SDS011;6790;49.520;8.504;2023-03-01T00:49:31;9.33;;;5.97;;
13435;SDS011;6790;49.520;8.504;2023-03-01T00:51:57;7.77;;;5.00;;
13435;SDS011;6790;49.520;8.504;2023-03-01T00:54:23;6.13;;;4.10;;
13435;SDS011;6790;49.520;8.504;2023-03-01T00:56:48;9.17;;;4.37;;
13435;SDS011;6790;49.520;8.504;2023-03-01T00:59:14;10.80;;;5.37;;
13435;SDS011;6790;49.520;8.504;2023-03-01T01:01:40;11.73;;;6.17;;
13435;SDS011;6790;49.520;8.504;2023-03-01T01:04:07;10.53;;;4.17;;
13435;SDS011;6790;49.520;8.504;2023-03-01T01:06:37;7.50;;;5.07;;
13435;SDS011;6790;49.520;8.504;2023-03-01T01:09:09;7.00;;;5.00;;
13435;SDS011;6790;49.520;8.504;2023-03-01T01:11:42;5.93;;;4.83;;
13435;SDS011;6790;49.520;8.504;2023-03-01T01:14:13;9.80;;;6.47;;
13435;SDS011;6790;49.520;8.504;2023-03-01T01:16:39;8.97;;;5.53;;
13435;SDS011;6790;49.520;8.504;2023-03-01T01:19:05;10.70;;;4.93;;
13435;SDS011;6790;49.520;8.504;2023-03-01T01:21:31;13.07;;;6.93;;
13435;SDS011;6790;49.520;8.504;2023-03-01T01:23:57;9.30;;;4.90;;
13435;SDS011;6790;49.520;8.504;2023-03-01T01:26:23;6.50;;;4.80;;
13435;SDS011;6790;49.520;8.504;2023-03-01T01:28:52;8.77;;;6.07;;
13435;SDS011;6790;49.520;8.504;2023-03-01T01:31:19;8.60;;;5.47;;
13435;SDS011;6790;49.520;8.504;2023-03-01T01:33:48;7.00;;;4.90;;
13435;SDS011;6790;49.520;8.504;2023-03-01T01:36:15;11.87;;;7.07;;
13435;SDS011;6790;49.520;8.504;2023-03-01T01:38:41;16.30;;;6.73;;
13435;SDS011;6790;49.520;8.504;2023-03-01T01:41:08;8.23;;;5.30;;
13435;SDS011;6790;49.520;8.504;2023-03-01T01:43:47;9.23;;;5.33;;
13435;SDS011;6790;49.520;8.504;2023-03-01T01:46:33;10.77;;;6.47;;
13435;SDS011;6790;49.520;8.504;2023-03-01T01:49:16;11.47;;;6.43;;
13435;SDS011;6790;49.520;8.504;2023-03-01T01:51:46;10.30;;;5.90;;
13435;SDS011;6790;49.520;8.504;2023-03-01T01:54:19;9.57;;;5.70;;
13435;SDS011;6790;49.520;8.504;2023-03-01T01:57:02;11.70;;;6.63;;
13435;SDS011;6790;49.520;8.504;2023-03-01T01:59:33;8.53;;;5.20;;
13435;SDS011;6790;49.520;8.504;2023-03-01T02:02:00;12.60;;;6.43;;
13435;SDS011;6790;49.520;8.504;2023-03-01T02:04:28;6.93;;;4.80;;
13435;SDS011;6790;49.520;8.504;2023-03-01T02:07:15;11.03;;;6.20;;
13435;SDS011;6790;49.520;8.504;2023-03-01T02:09:48;8.13;;;5.00;;
13435;SDS011;6790;49.520;8.504;2023-03-01T02:12:16;13.40;;;6.90;;
13435;SDS011;6790;49.520;8.504;2023-03-01T02:14:45;11.13;;;6.90;;
13435;SDS011;6790;49.520;8.504;2023-03-01T02:17:11;8.63;;;4.43;;
13435;SDS011;6790;49.520;8.504;2023-03-01T02:19:44;9.87;;;4.93;;
13435;SDS011;6790;49.520;8.504;2023-03-01T02:22:32;13.50;;;6.40;;
13435;SDS011;6790;49.520;8.504;2023-03-01T02:30:41;11.87;;;6.00;;
13435;SDS011;6790;49.520;8.504;2023-03-01T02:33:28;13.90;;;6.13;;
13435;SDS011;6790;49.520;8.504;2023-03-01T02:35:57;9.30;;;5.90;;
13435;SDS011;6790;49.520;8.504;2023-03-01T02:38:25;18.70;;;7.17;;
13435;SDS011;6790;49.520;8.504;2023-03-01T02:40:52;10.47;;;5.67;;
13435;SDS011;6790;49.520;8.504;2023-03-01T02:43:19;13.03;;;6.40;;
13435;SDS011;6790;49.520;8.504;2023-03-01T02:45:48;10.47;;;6.23;;
13435;SDS011;6790;49.520;8.504;2023-03-01T02:48:16;9.53;;;5.77;;
13435;SDS011;6790;49.520;8.504;2023-03-01T02:56:40;10.50;;;6.00;;
13435;SDS011;6790;49.520;8.504;2023-03-01T02:59:08;8.90;;;5.17;;
13435;SDS011;6790;49.520;8.504;2023-03-01T03:01:34;11.13;;;6.83;;
13435;SDS011;6790;49.520;8.504;2023-03-01T03:04:07;6.27;;;4.60;;
13435;SDS011;6790;49.520;8.504;2023-03-01T03:06:41;14.60;;;6.67;;
13435;SDS011;6790;49.520;8.504;2023-03-01T03:09:09;13.37;;;5.37;;
13435;SDS011;6790;49.520;8.504;2023-03-01T03:11:35;11.93;;;5.63;;
13435;SDS011;6790;49.520;8.504;2023-03-01T03:14:02;11.73;;;5.60;;
13435;SDS011;6790;49.520;8.504;2023-03-01T03:16:28;9.83;;;6.10;;
13435;SDS011;6790;49.520;8.504;2023-03-01T03:18:54;11.40;;;5.93;;
13435;SDS011;6790;49.520;8.504;2023-03-01T03:21:29;8.30;;;4.97;;
13435;SDS011;6790;49.520;8.504;2023-03-01T03:23:58;12.97;;;6.70;;
13435;SDS011;6790;49.520;8.504;2023-03-01T03:26:24;10.83;;;6.00;;
13435;SDS011;6790;49.520;8.504;2023-03-01T03:28:50;8.80;;;5.13;;
13435;SDS011;6790;49.520;8.504;2023-03-01T03:31:16;7.07;;;4.80;;
13435;SDS011;6790;49.520;8.504;2023-03-01T03:33:42;11.17;;;6.83;;
13435;SDS011;6790;49.520;8.504;2023-03-01T03:36:07;14.87;;;6.97;;
13435;SDS011;6790;49.520;8.504;2023-03-01T03:38:38;9.37;;;5.57;;
13435;SDS011;6790;49.520;8.504;2023-03-01T03:41:07;11.70;;;6.27;;
13435;SDS011;6790;49.520;8.504;2023-03-01T03:43:34;11.83;;;4.50;;
13435;SDS011;6790;49.520;8.504;2023-03-01T03:46:02;14.47;;;5.50;;
13435;SDS011;6790;49.520;8.504;2023-03-01T03:48:42;11.77;;;6.97;;
13435;SDS011;6790;49.520;8.504;2023-03-01T03:51:10;15.03;;;7.23;;
13435;SDS011;6790;49.520;8.504;2023-03-01T03:53:41;8.23;;;4.67;;
13435;SDS011;6790;49.520;8.504;2023-03-01T03:56:07;11.93;;;5.57;;
13435;SDS011;6790;49.520;8.504;2023-03-01T03:58:33;7.50;;;4.60;;
13435;SDS011;6790;49.520;8.504;2023-03-01T04:00:59;11.33;;;5.10;;
13435;SDS011;6790;49.520;8.504;2023-03-01T04:03:28;11.83;;;6.60;;
13435;SDS011;6790;49.520;8.504;2023-03-01T04:05:57;9.70;;;5.87;;
13435;SDS011;6790;49.520;8.504;2023-03-01T04:08:25;9.90;;;5.53;;
13435;SDS011;6790;49.520;8.504;2023-03-01T04:10:52;9.30;;;5.57;;
13435;SDS011;6790;49.520;8.504;2023-03-01T04:13:23;7.70;;;5.77;;
13435;SDS011;6790;49.520;8.504;2023-03-01T04:15:50;12.17;;;7.40;;
13435;SDS011;6790;49.520;8.504;2023-03-01T04:18:18;14.63;;;7.10;;
13435;SDS011;6790;49.520;8.504;2023-03-01T04:20:48;13.90;;;8.73;;
13435;SDS011;6790;49.520;8.504;2023-03-01T04:23:17;12.80;;;6.33;;
13435;SDS011;6790;49.520;8.504;2023-03-01T04:25:46;11.47;;;6.40;;
13435;SDS011;6790;49.520;8.504;2023-03-01T04:28:43;12.33;;;6.60;;
13435;SDS011;6790;49.520;8.504;2023-03-01T04:31:14;11.57;;;7.00;;
13435;SDS011;6790;49.520;8.504;2023-03-01T04:33:44;10.73;;;7.10;;
13435;SDS011;6790;49.520;8.504;2023-03-01T04:36:16;9.20;;;5.37;;
13435;SDS011;6790;49.520;8.504;2023-03-01T04:38:43;11.77;;;6.23;;
13435;SDS011;6790;49.520;8.504;2023-03-01T04:41:12;12.87;;;6.97;;
13435;SDS011;6790;49.520;8.504;2023-03-01T04:43:41;11.50;;;5.33;;
13435;SDS011;6790;49.520;8.504;2023-03-01T04:46:08;15.80;;;6.73;;
13435;SDS011;6790;49.520;8.504;2023-03-01T04:48:37;14.10;;;8.57;;
13435;SDS011;6790;49.520;8.504;2023-03-01T04:51:04;14.03;;;7.40;;
13435;SDS011;6790;49.520;8.504;2023-03-01T04:53:31;12.30;;;6.80;;
13435;SDS011;6790;49.520;8.504;2023-03-01T04:55:58;11.07;;;7.23;;
13435;SDS011;6790;49.520;8.504;2023-03-01T04:58:25;10.67;;;5.70;;
13435;SDS011;6790;49.520;8.504;2023-03-01T05:00:52;14.57;;;8.20;;
13435;SDS011;6790;49.520;8.504;2023-03-01T05:03:19;14.73;;;7.87;;
13435;SDS011;6790;49.520;8.504;2023-03-01T05:05:46;14.13;;;8.53;;
13435;SDS011;6790;49.520;8.504;2023-03-01T05:08:14;15.00;;;6.83;;
13435;SDS011;6790;49.520;8.504;2023-03-01T05:10:48;14.43;;;7.27;;
13435;SDS011;6790;49.520;8.504;2023-03-01T05:13:16;12.87;;;6.63;;
13435;SDS011;6790;49.520;8.504;2023-03-01T05:15:49;18.13;;;8.10;;
13435;SDS011;6790;49.520;8.504;2023-03-01T05:18:26;16.27;;;7.57;;
13435;SDS011;6790;49.520;8.504;2023-03-01T05:20:55;12.70;;;7.23;;
13435;SDS011;6790;49.520;8.504;2023-03-01T05:23:31;15.00;;;7.37;;
13435;SDS011;6790;49.520;8.504;2023-03-01T05:25:58;16.33;;;9.07;;
13435;SDS011;6790;49.520;8.504;2023-03-01T05:28:29;14.10;;;7.67;;
13435;SDS011;6790;49.520;8.504;2023-03-01T05:30:55;14.20;;;7.00;;
13435;SDS011;6790;49.520;8.504;2023-03-01T05:33:22;17.23;;;9.17;;
13435;SDS011;6790;49.520;8.504;2023-03-01T05:35:49;14.83;;;8.27;;
13435;SDS011;6790;49.520;8.504;2023-03-01T05:38:16;15.83;;;7.50;;
13435;SDS011;6790;49.520;8.504;2023-03-01T05:40:43;10.23;;;6.87;;
13435;SDS011;6790;49.520;8.504;2023-03-01T05:43:11;9.93;;;6.70;;
13435;SDS011;6790;49.520;8.504;2023-03-01T05:45:39;15.73;;;6.57;;
13435;SDS011;6790;49.520;8.504;2023-03-01T05:48:06;19.50;;;9.10;;
13435;SDS011;6790;49.520;8.504;2023-03-01T05:50:34;14.37;;;7.67;;
13435;SDS011;6790;49.520;8.504;2023-03-01T05:53:06;12.90;;;6.93;;
13435;SDS011;6790;49.520;8.504;2023-03-01T05:55:41;12.23;;;7.33;;
13435;SDS011;6790;49.520;8.504;2023-03-01T05:58:12;15.37;;;7.93;;
13435;SDS011;6790;49.520;8.504;2023-03-01T06:00:41;14.93;;;8.33;;
13435;SDS011;6790;49.520;8.504;2023-03-01T06:03:08;12.40;;;7.37;;
13435;SDS011;6790;49.520;8.504;2023-03-01T06:05:37;17.40;;;8.30;;
13435;SDS011;6790;49.520;8.504;2023-03-01T06:08:04;12.50;;;7.70;;
13435;SDS011;6790;49.520;8.504;2023-03-01T06:10:30;17.50;;;9.17;;
13435;SDS011;6790;49.520;8.504;2023-03-01T06:12:56;18.20;;;9.83;;
13435;SDS011;6790;49.520;8.504;2023-03-01T06:15:23;20.03;;;9.17;;
13435;SDS011;6790;49.520;8.504;2023-03-01T06:17:49;13.90;;;7.33;;
13435;SDS011;6790;49.520;8.504;2023-03-01T06:20:17;15.03;;;7.93;;
13435;SDS011;6790;49.520;8.504;2023-03-01T06:22:48;15.53;;;7.70;;
13435;SDS011;6790;49.520;8.504;2023-03-01T06:25:15;14.17;;;7.50;;
13435;SDS011;6790;49.520;8.504;2023-03-01T06:27:44;12.17;;;7.03;;
13435;SDS011;6790;49.520;8.504;2023-03-01T06:30:11;17.90;;;9.10;;
13435;SDS011;6790;49.520;8.504;2023-03-01T06:32:40;29.43;;;14.90;;
13435;SDS011;6790;49.520;8.504;2023-03-01T06:35:09;76.93;;;37.13;;
13435;SDS011;6790;49.520;8.504;2023-03-01T06:37:38;59.50;;;30.30;;
13435;SDS011;6790;49.520;8.504;2023-03-01T06:40:05;32.37;;;17.70;;
13435;SDS011;6790;49.520;8.504;2023-03-01T06:42:33;67.43;;;33.97;;
13435;SDS011;6790;49.520;8.504;2023-03-01T06:45:04;29.10;;;15.53;;
13435;SDS011;6790;49.520;8.504;2023-03-01T06:47:31;19.03;;;9.93;;
13435;SDS011;6790;49.520;8.504;2023-03-01T06:50:01;14.90;;;8.27;;
13435;SDS011;6790;49.520;8.504;2023-03-01T06:52:27;14.50;;;6.70;;
13435;SDS011;6790;49.520;8.504;2023-03-01T06:54:53;21.73;;;11.07;;
13435;SDS011;6790;49.520;8.504;2023-03-01T06:57:22;16.80;;;9.80;;
13435;SDS011;6790;49.520;8.504;2023-03-01T06:59:49;17.50;;;9.03;;
13435;SDS011;6790;49.520;8.504;2023-03-01T07:02:17;15.70;;;8.40;;
13435;SDS011;6790;49.520;8.504;2023-03-01T07:04:43;18.50;;;8.83;;
13435;SDS011;6790;49.520;8.504;2023-03-01T07:07:08;16.50;;;8.93;;
13435;SDS011;6790;49.520;8.504;2023-03-01T07:09:36;16.90;;;8.67;;
13435;SDS011;6790;49.520;8.504;2023-03-01T07:12:02;14.73;;;8.00;;
13435;SDS011;6790;49.520;8.504;2023-03-01T07:14:28;54.47;;;30.17;;
13435;SDS011;6790;49.520;8.504;2023-03-01T07:16:54;24.33;;;11.33;;
13435;SDS011;6790;49.520;8.504;2023-03-01T07:19:20;31.47;;;15.10;;
13435;SDS011;6790;49.520;8.504;2023-03-01T07:21:47;22.17;;;10.80;;
13435;SDS011;6790;49.520;8.504;2023-03-01T07:24:13;17.37;;;8.80;;
13435;SDS011;6790;49.520;8.504;2023-03-01T07:26:38;25.47;;;13.00;;
13435;SDS011;6790;49.520;8.504;2023-03-01T07:29:05;17.43;;;9.10;;
13435;SDS011;6790;49.520;8.504;2023-03-01T07:31:34;13.57;;;7.57;;
13435;SDS011;6790;49.520;8.504;2023-03-01T07:34:00;15.80;;;8.20;;
13435;SDS011;6790;49.520;8.504;2023-03-01T07:36:26;15.63;;;9.20;;
13435;SDS011;6790;49.520;8.504;2023-03-01T07:38:52;15.30;;;9.03;;
13435;SDS011;6790;49.520;8.504;2023-03-01T07:41:17;15.10;;;7.63;;
13435;SDS011;6790;49.520;8.504;2023-03-01T07:43:43;14.73;;;8.60;;
13435;SDS011;6790;49.520;8.504;2023-03-01T07:46:09;16.63;;;8.53;;
13435;SDS011;6790;49.520;8.504;2023-03-01T07:48:35;15.73;;;8.90;;
13435;SDS011;6790;49.520;8.504;2023-03-01T07:51:01;15.93;;;7.77;;
13435;SDS011;6790;49.520;8.504;2023-03-01T07:53:30;14.33;;;7.23;;
13435;SDS011;6790;49.520;8.504;2023-03-01T07:56:02;11.07;;;7.03;;
13435;SDS011;6790;49.520;8.504;2023-03-01T07:58:36;15.23;;;7.87;;
13435;SDS011;6790;49.520;8.504;2023-03-01T08:01:04;13.47;;;8.63;;
13435;SDS011;6790;49.520;8.504;2023-03-01T08:03:31;16.80;;;8.43;;
13435;SDS011;6790;49.520;8.504;2023-03-01T08:06:01;15.97;;;8.30;;
13435;SDS011;6790;49.520;8.504;2023-03-01T08:08:29;16.93;;;8.17;;
13435;SDS011;6790;49.520;8.504;2023-03-01T08:10:56;15.73;;;9.67;;
13435;SDS011;6790;49.520;8.504;2023-03-01T08:13:23;15.37;;;8.23;;
13435;SDS011;6790;49.520;8.504;2023-03-01T08:15:49;19.70;;;11.43;;
13435;SDS011;6790;49.520;8.504;2023-03-01T08:18:18;26.77;;;7.80;;
13435;SDS011;6790;49.520;8.504;2023-03-01T08:20:45;16.73;;;10.03;;
13435;SDS011;6790;49.520;8.504;2023-03-01T08:23:12;13.77;;;8.17;;
13435;SDS011;6790;49.520;8.504;2023-03-01T08:25:40;14.53;;;8.33;;
13435;SDS011;6790;49.520;8.504;2023-03-01T08:28:06;17.53;;;8.93;;
13435;SDS011;6790;49.520;8.504;2023-03-01T08:30:32;16.30;;;8.97;;
13435;SDS011;6790;49.520;8.504;2023-03-01T08:32:59;17.77;;;9.10;;
13435;SDS011;6790;49.520;8.504;2023-03-01T08:35:24;15.30;;;8.50;;
13435;SDS011;6790;49.520;8.504;2023-03-01T08:37:50;16.63;;;8.80;;
13435;SDS011;6790;49.520;8.504;2023-03-01T08:40:16;19.33;;;9.17;;
13435;SDS011;6790;49.520;8.504;2023-03-01T08:42:41;16.40;;;9.17;;
13435;SDS011;6790;49.520;8.504;2023-03-01T08:45:10;13.43;;;8.50;;
13435;SDS011;6790;49.520;8.504;2023-03-01T08:47:39;16.10;;;8.47;;
13435;SDS011;6790;49.520;8.504;2023-03-01T08:50:04;14.03;;;7.97;;
13435;SDS011;6790;49.520;8.504;2023-03-01T08:52:31;12.30;;;8.03;;
13435;SDS011;6790;49.520;8.504;2023-03-01T08:54:58;20.00;;;10.90;;
13435;SDS011;6790;49.520;8.504;2023-03-01T08:57:23;15.50;;;9.27;;
13435;SDS011;6790;49.520;8.504;2023-03-01T08:59:49;16.27;;;9.37;;
13435;SDS011;6790;49.520;8.504;2023-03-01T09:02:16;14.93;;;8.70;;
13435;SDS011;6790;49.520;8.504;2023-03-01T09:04:43;17.80;;;9.97;;
13435;SDS011;6790;49.520;8.504;2023-03-01T09:07:09;15.13;;;8.97;;
13435;SDS011;6790;49.520;8.504;2023-03-01T09:09:35;18.10;;;9.67;;
13435;SDS011;6790;49.520;8.504;2023-03-01T09:12:01;19.07;;;9.40;;
13435;SDS011;6790;49.520;8.504;2023-03-01T09:14:28;15.30;;;9.40;;
13435;SDS011;6790;49.520;8.504;2023-03-01T09:16:54;14.23;;;8.97;;
13435;SDS011;6790;49.520;8.504;2023-03-01T09:19:19;16.90;;;10.40;;
13435;SDS011;6790;49.520;8.504;2023-03-01T09:21:45;15.03;;;9.90;;
13435;SDS011;6790;49.520;8.504;2023-03-01T09:24:18;19.23;;;9.90;;
13435;SDS011;6790;49.520;8.504;2023-03-01T09:26:51;18.23;;;10.33;;
13435;SDS011;6790;49.520;8.504;2023-03-01T09:29:19;17.43;;;9.73;;
13435;SDS011;6790;49.520;8.504;2023-03-01T09:31:45;18.27;;;10.33;;
13435;SDS011;6790;49.520;8.504;2023-03-01T09:34:11;15.47;;;9.67;;
13435;SDS011;6790;49.520;8.504;2023-03-01T09:36:40;16.93;;;10.33;;
13435;SDS011;6790;49.520;8.504;2023-03-01T09:39:06;17.20;;;10.97;;
13435;SDS011;6790;49.520;8.504;2023-03-01T09:41:42;15.93;;;9.40;;
13435;SDS011;6790;49.520;8.504;2023-03-01T09:46:56;16.47;;;9.63;;
13435;SDS011;6790;49.520;8.504;2023-03-01T09:49:24;17.90;;;10.63;;
13435;SDS011;6790;49.520;8.504;2023-03-01T09:51:59;18.17;;;11.00;;
13435;SDS011;6790;49.520;8.504;2023-03-01T09:54:39;19.10;;;11.13;;
13435;SDS011;6790;49.520;8.504;2023-03-01T09:57:19;43.00;;;25.37;;
13435;SDS011;6790;49.520;8.504;2023-03-01T10:00:09;17.57;;;11.17;;
13435;SDS011;6790;49.520;8.504;2023-03-01T10:08:42;18.00;;;9.93;;
13435;SDS011;6790;49.520;8.504;2023-03-01T10:11:22;20.37;;;11.03;;
13435;SDS011;6790;49.520;8.504;2023-03-01T10:13:55;16.23;;;9.80;;
13435;SDS011;6790;49.520;8.504;2023-03-01T10:16:46;18.43;;;10.60;;
13435;SDS011;6790;49.520;8.504;2023-03-01T10:19:23;17.27;;;10.50;;
13435;SDS011;6790;49.520;8.504;2023-03-01T10:21:56;15.57;;;10.00;;
13435;SDS011;6790;49.520;8.504;2023-03-01T10:24:28;14.13;;;9.87;;
13435;SDS011;6790;49.520;8.504;2023-03-01T10:27:01;15.47;;;9.20;;
13435;SDS011;6790;49.520;8.504;2023-03-01T10:29:48;16.10;;;10.33;;
13435;SDS011;6790;49.520;8.504;2023-03-01T10:32:26;15.50;;;10.70;;
13435;SDS011;6790;49.520;8.504;2023-03-01T10:34:52;15.20;;;9.70;;
13435;SDS011;6790;49.520;8.504;2023-03-01T10:37:18;18.60;;;10.63;;
13435;SDS011;6790;49.520;8.504;2023-03-01T10:42:34;15.83;;;9.60;;
13435;SDS011;6790;49.520;8.504;2023-03-01T10:50:39;14.57;;;10.30;;
13435;SDS011;6790;49.520;8.504;2023-03-01T10:53:21;15.33;;;9.50;;
13435;SDS011;6790;49.520;8.504;2023-03-01T10:56:06;15.77;;;9.97;;
13435;SDS011;6790;49.520;8.504;2023-03-01T10:58:41;18.47;;;10.37;;
13435;SDS011;6790;49.520;8.504;2023-03-01T11:01:30;18.83;;;10.40;;
13435;SDS011;6790;49.520;8.504;2023-03-01T11:06:31;19.80;;;9.70;;
13435;SDS011;6790;49.520;8.504;2023-03-01T11:09:01;16.03;;;9.60;;
13435;SDS011;6790;49.520;8.504;2023-03-01T11:11:44;14.60;;;10.60;;
13435;SDS011;6790;49.520;8.504;2023-03-01T11:17:10;17.33;;;10.97;;
13435;SDS011;6790;49.520;8.504;2023-03-01T11:19:42;20.00;;;9.97;;
13435;SDS011;6790;49.520;8.504;2023-03-01T11:24:49;19.93;;;10.40;;
13435;SDS011;6790;49.520;8.504;2023-03-01T11:27:24;18.70;;;10.33;;
13435;SDS011;6790;49.520;8.504;2023-03-01T11:30:05;16.87;;;10.03;;
13435;SDS011;6790;49.520;8.504;2023-03-01T11:32:45;13.83;;;9.27;;
13435;SDS011;6790;49.520;8.504;2023-03-01T11:35:35;18.67;;;10.50;;
13435;SDS011;6790;49.520;8.504;2023-03-01T11:41:11;18.20;;;9.73;;
13435;SDS011;6790;49.520;8.504;2023-03-01T11:43:49;16.40;;;10.63;;
13435;SDS011;6790;49.520;8.504;2023-03-01T12:04:21;15.73;;;9.60;;
13435;SDS011;6790;49.520;8.504;2023-03-01T12:16:38;13.53;;;9.23;;
13435;SDS011;6790;49.520;8.504;2023-03-01T12:34:34;14.37;;;9.10;;
13435;SDS011;6790;49.520;8.504;2023-03-01T12:40:33;17.00;;;9.77;;
13435;SDS011;6790;49.520;8.504;2023-03-01T12:43:21;15.27;;;9.20;;
13435;SDS011;6790;49.520;8.504;2023-03-01T12:49:12;17.47;;;10.70;;
13435;SDS011;6790;49.520;8.504;2023-03-01T12:54:46;14.77;;;9.70;;
13435;SDS011;6790;49.520;8.504;2023-03-01T12:57:50;15.13;;;9.33;;
13435;SDS011;6790;49.520;8.504;2023-03-01T13:03:24;16.07;;;8.53;;
13435;SDS011;6790;49.520;8.504;2023-03-01T13:06:39;13.13;;;8.67;;
13435;SDS011;6790;49.520;8.504;2023-03-01T13:11:55;15.67;;;10.13;;
13435;SDS011;6790;49.520;8.504;2023-03-01T13:16:47;13.23;;;8.17;;
13435;SDS011;6790;49.520;8.504;2023-03-01T13:19:17;13.93;;;8.93;;
13435;SDS011;6790;49.520;8.504;2023-03-01T13:21:48;13.53;;;9.23;;
13435;SDS011;6790;49.520;8.504;2023-03-01T13:29:46;13.53;;;9.10;;
13435;SDS011;6790;49.520;8.504;2023-03-01T13:32:23;10.97;;;7.80;;
13435;SDS011;6790;49.520;8.504;2023-03-01T13:35:01;15.20;;;9.30;;
13435;SDS011;6790;49.520;8.504;2023-03-01T13:37:30;17.83;;;10.83;;
13435;SDS011;6790;49.520;8.504;2023-03-01T13:40:00;22.13;;;12.60;;
13435;SDS011;6790;49.520;8.504;2023-03-01T13:42:35;14.00;;;8.93;;
13435;SDS011;6790;49.520;8.504;2023-03-01T13:45:02;17.13;;;10.47;;
13435;SDS011;6790;49.520;8.504;2023-03-01T13:47:39;14.30;;;8.60;;
13435;SDS011;6790;49.520;8.504;2023-03-01T13:50:06;13.17;;;7.90;;
13435;SDS011;6790;49.520;8.504;2023-03-01T13:57:47;12.67;;;7.80;;
13435;SDS011;6790;49.520;8.504;2023-03-01T14:00:26;11.37;;;7.60;;
13435;SDS011;6790;49.520;8.504;2023-03-01T14:03:08;11.87;;;7.43;;
13435;SDS011;6790;49.520;8.504;2023-03-01T14:05:38;13.30;;;7.70;;
13435;SDS011;6790;49.520;8.504;2023-03-01T14:08:20;10.57;;;6.90;;
13435;SDS011;6790;49.520;8.504;2023-03-01T14:17:16;15.13;;;6.97;;
13435;SDS011;6790;49.520;8.504;2023-03-01T14:20:24;10.00;;;7.77;;
13435;SDS011;6790;49.520;8.504;2023-03-01T14:22:54;13.37;;;8.93;;
13435;SDS011;6790;49.520;8.504;2023-03-01T14:25:36;13.93;;;7.93;;
13435;SDS011;6790;49.520;8.504;2023-03-01T14:28:04;17.93;;;9.67;;
13435;SDS011;6790;49.520;8.504;2023-03-01T14:30:50;16.93;;;10.00;;
13435;SDS011;6790;49.520;8.504;2023-03-01T14:33:45;27.17;;;16.47;;
13435;SDS011;6790;49.520;8.504;2023-03-01T14:36:25;15.57;;;10.47;;
13435;SDS011;6790;49.520;8.504;2023-03-01T14:38:59;12.73;;;7.47;;
13435;SDS011;6790;49.520;8.504;2023-03-01T14:41:30;17.63;;;8.27;;
13435;SDS011;6790;49.520;8.504;2023-03-01T14:44:00;10.20;;;7.30;;
13435;SDS011;6790;49.520;8.504;2023-03-01T14:46:31;9.63;;;7.20;;
13435;SDS011;6790;49.520;8.504;2023-03-01T14:49:05;11.60;;;7.00;;
13435;SDS011;6790;49.520;8.504;2023-03-01T14:51:38;11.10;;;7.57;;
13435;SDS011;6790;49.520;8.504;2023-03-01T14:54:11;16.00;;;9.53;;
13435;SDS011;6790;49.520;8.504;2023-03-01T14:56:52;11.00;;;8.00;;
13435;SDS011;6790;49.520;8.504;2023-03-01T14:59:24;11.23;;;7.23;;
13435;SDS011;6790;49.520;8.504;2023-03-01T15:01:50;8.60;;;6.77;;
13435;SDS011;6790;49.520;8.504;2023-03-01T15:04:23;10.27;;;7.10;;
13435;SDS011;6790;49.520;8.504;2023-03-01T15:06:52;11.03;;;6.83;;
13435;SDS011;6790;49.520;8.504;2023-03-01T15:09:19;9.53;;;7.10;;
13435;SDS011;6790;49.520;8.504;2023-03-01T15:11:47;10.47;;;6.33;;
13435;SDS011;6790;49.520;8.504;2023-03-01T15:17:19;8.80;;;6.17;;
13435;SDS011;6790;49.520;8.504;2023-03-01T15:19:57;16.83;;;6.77;;
13435;SDS011;6790;49.520;8.504;2023-03-01T15:22:25;10.40;;;7.10;;
13435;SDS011;6790;49.520;8.504;2023-03-01T15:24:51;12.13;;;7.07;;
13435;SDS011;6790;49.520;8.504;2023-03-01T15:27:19;15.20;;;9.13;;
13435;SDS011;6790;49.520;8.504;2023-03-01T15:29:58;14.30;;;9.03;;
13435;SDS011;6790;49.520;8.504;2023-03-01T15:32:31;12.97;;;8.00;;
13435;SDS011;6790;49.520;8.504;2023-03-01T15:35:32;12.90;;;6.60;;
13435;SDS011;6790;49.520;8.504;2023-03-01T15:41:22;10.80;;;6.70;;
13435;SDS011;6790;49.520;8.504;2023-03-01T15:43:58;8.47;;;6.20;;
13435;SDS011;6790;49.520;8.504;2023-03-01T15:46:31;9.97;;;6.47;;
13435;SDS011;6790;49.520;8.504;2023-03-01T15:49:01;10.70;;;7.13;;
13435;SDS011;6790;49.520;8.504;2023-03-01T15:51:32;19.70;;;13.00;;
13435;SDS011;6790;49.520;8.504;2023-03-01T15:54:02;11.63;;;7.40;;
13435;SDS011;6790;49.520;8.504;2023-03-01T15:56:43;10.67;;;6.63;;
13435;SDS011;6790;49.520;8.504;2023-03-01T15:59:09;10.13;;;6.13;;
13435;SDS011;6790;49.520;8.504;2023-03-01T16:01:38;9.03;;;6.00;;
13435;SDS011;6790;49.520;8.504;2023-03-01T16:04:11;11.47;;;7.53;;
13435;SDS011;6790;49.520;8.504;2023-03-01T16:06:45;11.87;;;5.77;;
13435;SDS011;6790;49.520;8.504;2023-03-01T16:09:23;8.57;;;6.17;;
13435;SDS011;6790;49.520;8.504;2023-03-01T16:11:50;9.83;;;5.70;;
13435;SDS011;6790;49.520;8.504;2023-03-01T16:14:18;9.37;;;5.87;;
13435;SDS011;6790;49.520;8.504;2023-03-01T16:16:43;10.60;;;6.10;;
13435;SDS011;6790;49.520;8.504;2023-03-01T16:19:10;10.40;;;6.13;;
13435;SDS011;6790;49.520;8.504;2023-03-01T16:21:37;8.20;;;6.07;;
13435;SDS011;6790;49.520;8.504;2023-03-01T16:24:03;14.90;;;6.47;;
13435;SDS011;6790;49.520;8.504;2023-03-01T16:26:29;9.60;;;5.77;;
13435;SDS011;6790;49.520;8.504;2023-03-01T16:28:55;11.07;;;6.40;;
13435;SDS011;6790;49.520;8.504;2023-03-01T16:31:22;10.53;;;6.30;;
13435;SDS011;6790;49.520;8.504;2023-03-01T16:33:49;11.00;;;6.80;;
13435;SDS011;6790;49.520;8.504;2023-03-01T16:36:17;12.40;;;6.37;;
13435;SDS011;6790;49.520;8.504;2023-03-01T16:38:44;9.73;;;6.47;;
13435;SDS011;6790;49.520;8.504;2023-03-01T16:41:14;11.97;;;7.47;;
13435;SDS011;6790;49.520;8.504;2023-03-01T16:43:43;23.20;;;17.73;;
13435;SDS011;6790;49.520;8.504;2023-03-01T16:46:12;11.50;;;6.87;;
13435;SDS011;6790;49.520;8.504;2023-03-01T16:48:40;10.03;;;7.47;;
13435;SDS011;6790;49.520;8.504;2023-03-01T16:51:06;13.00;;;7.57;;
13435;SDS011;6790;49.520;8.504;2023-03-01T16:53:32;12.63;;;6.77;;
13435;SDS011;6790;49.520;8.504;2023-03-01T16:56:01;10.80;;;7.13;;
13435;SDS011;6790;49.520;8.504;2023-03-01T16:58:30;11.57;;;6.83;;
13435;SDS011;6790;49.520;8.504;2023-03-01T17:00:56;9.90;;;6.43;;
13435;SDS011;6790;49.520;8.504;2023-03-01T17:03:31;9.47;;;5.70;;
13435;SDS011;6790;49.520;8.504;2023-03-01T17:05:57;10.90;;;6.17;;
13435;SDS011;6790;49.520;8.504;2023-03-01T17:08:28;10.10;;;5.87;;
13435;SDS011;6790;49.520;8.504;2023-03-01T17:10:53;16.37;;;8.20;;